This is the latest recevied weather packets stored in our database for station/object KG5VSR. If no packets are shown the sender has not sent any weather packets the latest 10 day(s).
| Time | Temp. | Humidity | Pressure | Rain* | Wind** | Luminosity | Snow |
|---|---|---|---|---|---|---|---|
| 1777738517 | 21.67° C | 44% | 1023.1 hPa | 0 mm | - | 855 W/m² | - |
| 1777736716 | 21.11° C | 45% | 1022.7 hPa | 0 mm | - | 769 W/m² | - |
| 1777734628 | 20° C | 55% | 1022.9 hPa | 0 mm | - | 567 W/m² | - |
| 1777732825 | 18.33° C | 64% | 1022.7 hPa | 0 mm | - | 480 W/m² | - |
| 1777731020 | 17.22° C | 73% | 1022.2 hPa | 0 mm | - | 299 W/m² | - |
| 1777729218 | 15° C | 83% | 1022.2 hPa | 0 mm | - | 202 W/m² | - |
| 1777727417 | 13.33° C | 90% | 1022.3 hPa | 0 mm | - | 150 W/m² | - |
| 1777725616 | 11.11° C | 98% | 1021.7 hPa | 0 mm | - | 50 W/m² | - |
| 1777723817 | 9.44° C | 98% | 1021.2 hPa | 0 mm | - | 16 W/m² | - |
| 1777722015 | 9.44° C | 98% | 1020.8 hPa | 0 mm | - | 0 W/m² | - |
| 1777720212 | 10° C | 97% | 1020 hPa | 0 mm | - | 0 W/m² | - |
| 1777718408 | 10.56° C | 97% | 1019.9 hPa | 0 mm | - | 0 W/m² | - |
| 1777716605 | 10° C | 97% | 1019.6 hPa | 0 mm | - | 0 W/m² | - |
| 1777714801 | 10.56° C | 98% | 1019.8 hPa | 0 mm | - | 0 W/m² | - |
| 1777712998 | 10° C | 98% | 1019.7 hPa | 0 mm | - | 0 W/m² | - |
| 1777711194 | 10.56° C | 98% | 1019.4 hPa | 0 mm | - | 0 W/m² | - |
| 1777709388 | 10.56° C | 98% | 1019.4 hPa | 0 mm | - | 0 W/m² | - |
| 1777707583 | 10.56° C | 98% | 1019.5 hPa | 0 mm | - | 0 W/m² | - |
| 1777705779 | 10.56° C | 97% | 1019.6 hPa | 0 mm | - | 0 W/m² | - |
| 1777703977 | 10.56° C | 97% | 1019.7 hPa | 0 mm | - | 0 W/m² | - |
| 1777702172 | 11.11° C | 96% | 1019.5 hPa | 0 mm | - | 0 W/m² | - |
| 1777700369 | 11.67° C | 95% | 1019.7 hPa | 0 mm | - | 0 W/m² | - |
| 1777698566 | 12.22° C | 93% | 1019.6 hPa | 0 mm | - | 0 W/m² | - |
| 1777696764 | 12.78° C | 92% | 1019.4 hPa | 0 mm | - | 0 W/m² | - |
| 1777694962 | 13.33° C | 90% | 1019.3 hPa | 0 mm | - | 0 W/m² | - |
* Rain latest hour (hover to see other rain measurements)
** Current wind speed in m/s (hover to see current wind gust speed)